Time;durP1;ratioP1;P1;durP2;ratioP2;P2;SDS_P1;SDS_P2;PMS_P1;PMS_P2;Temp;Humidity;BMP_temperature;BMP_pressure;BME280_temperature;BME280_humidity;BME280_pressure;Samples;Min_cycle;Max_cycle;Signal;HPM_P1;HPM_P2
2022/02/27 00:00:18;;;;;;;7.40;3.10;;;;;;;7.77;42.74;99447.03;5074366;28;20077;-53
2022/02/27 00:02:43;;;;;;;8.82;3.50;;;;;;;7.92;42.53;99454.19;5092517;28;20020;-53
2022/02/27 00:05:10;;;;;;;5.05;3.00;;;;;;;8.00;42.36;99448.97;5092445;28;20420;-53
2022/02/27 00:07:36;;;;;;;6.38;3.70;;;;;;;8.05;41.96;99451.91;5092340;28;20024;-52
2022/02/27 00:10:02;;;;;;;6.20;3.15;;;;;;;8.02;41.62;99451.44;5091502;28;20549;-53
2022/02/27 00:12:28;;;;;;;8.45;3.47;;;;;;;7.87;41.99;99452.09;5092344;28;20060;-53
2022/02/27 00:14:54;;;;;;;6.03;3.30;;;;;;;7.79;42.99;99455.50;5092335;28;20052;-52
2022/02/27 00:17:19;;;;;;;6.75;3.80;;;;;;;7.60;43.76;99459.25;5092291;28;20067;-52
2022/02/27 00:19:45;;;;;;;9.40;3.58;;;;;;;7.26;45.21;99445.50;5092243;28;20032;-52
2022/02/27 00:22:11;;;;;;;6.57;3.63;;;;;;;7.11;44.63;99456.56;5092196;28;20039;-52
2022/02/27 00:24:37;;;;;;;9.07;3.80;;;;;;;7.13;44.66;99459.81;5074019;28;20023;-52
2022/02/27 00:27:02;;;;;;;6.30;3.17;;;;;;;7.08;43.84;99462.06;5073833;28;20035;-52
2022/02/27 00:29:28;;;;;;;6.55;3.55;;;;;;;7.00;44.17;99460.28;5092087;28;20024;-52
2022/02/27 00:31:54;;;;;;;14.48;6.82;;;;;;;6.92;44.09;99464.63;5092447;28;20545;-53
2022/02/27 00:34:19;;;;;;;8.73;4.65;;;;;;;6.84;44.51;99460.22;5062020;28;20053;-52
2022/02/27 00:36:46;;;;;;;16.25;9.23;;;;;;;6.81;44.56;99460.53;5071792;28;20044;-52
2022/02/27 00:39:12;;;;;;;10.18;5.00;;;;;;;6.74;44.56;99469.94;5071862;28;20024;-52
2022/02/27 00:41:38;;;;;;;6.43;3.30;;;;;;;6.66;44.74;99470.72;5053789;28;20025;-52
2022/02/27 00:44:05;;;;;;;7.20;5.40;;;;;;;6.47;44.93;99476.16;5071703;28;20370;-52
2022/02/27 00:46:30;;;;;;;12.68;4.43;;;;;;;6.31;45.46;99475.09;5071776;28;20021;-52
2022/02/27 00:48:56;;;;;;;6.25;3.53;;;;;;;6.23;45.69;99474.22;5053666;28;20043;-53
2022/02/27 00:51:22;;;;;;;11.75;4.63;;;;;;;6.37;45.80;99469.25;5071650;28;20465;-52
2022/02/27 00:53:47;;;;;;;8.55;3.90;;;;;;;6.44;45.46;99466.03;5053678;28;20379;-52
2022/02/27 00:56:13;;;;;;;7.93;4.13;;;;;;;6.47;46.08;99470.94;5071593;28;20052;-52
2022/02/27 00:58:39;;;;;;;7.88;4.05;;;;;;;6.51;45.79;99472.28;5071590;28;20028;-52
2022/02/27 01:01:04;;;;;;;13.93;5.65;;;;;;;6.56;45.99;99468.25;5071587;28;20520;-52
2022/02/27 01:03:30;;;;;;;5.25;3.60;;;;;;;6.72;45.26;99475.34;5071558;28;20017;-52
2022/02/27 01:05:56;;;;;;;9.55;3.35;;;;;;;6.83;44.66;99474.22;5071584;28;20024;-52
2022/02/27 01:08:21;;;;;;;8.68;3.67;;;;;;;6.89;45.78;99473.59;5071422;28;20040;-51
2022/02/27 01:10:47;;;;;;;12.25;4.13;;;;;;;7.19;45.11;99471.44;5071441;28;20024;-52
2022/02/27 01:13:13;;;;;;;7.38;4.30;;;;;;;6.98;44.55;99471.81;5053471;28;20021;-52
2022/02/27 01:15:38;;;;;;;13.02;4.90;;;;;;;6.48;45.31;99475.19;5071406;28;20013;-52
2022/02/27 01:18:04;;;;;;;11.07;4.45;;;;;;;6.14;46.74;99479.38;5071400;28;20066;-52
2022/02/27 01:20:30;;;;;;;8.63;4.70;;;;;;;6.12;46.85;99483.94;5072049;28;20024;-52
2022/02/27 01:23:01;;;;;;;7.82;4.53;;;;;;;6.10;47.18;99480.66;5075342;28;20047;-52
2022/02/27 01:25:27;;;;;;;9.73;4.63;;;;;;;6.08;47.42;99468.75;5057278;28;20035;-52
2022/02/27 01:27:53;;;;;;;8.20;4.25;;;;;;;6.20;46.79;99472.75;5057165;28;20566;-52
2022/02/27 01:30:19;;;;;;;11.80;4.50;;;;;;;6.18;47.53;99462.47;5075164;28;20063;-52
2022/02/27 01:32:44;;;;;;;11.88;4.47;;;;;;;6.35;47.16;99462.56;5075050;28;20137;-52
2022/02/27 01:35:10;;;;;;;10.60;4.63;;;;;;;6.38;46.92;99460.47;5074870;28;20056;-52
2022/02/27 01:37:36;;;;;;;8.70;4.75;;;;;;;6.10;47.33;99466.81;5075110;28;20028;-52
2022/02/27 01:40:03;;;;;;;8.25;4.25;;;;;;;6.05;47.67;99456.81;5057038;28;20115;-52
2022/02/27 01:42:29;;;;;;;10.07;4.43;;;;;;;6.18;47.43;99453.84;5074866;28;20047;-51
2022/02/27 01:44:55;;;;;;;13.07;5.28;;;;;;;6.15;47.14;99456.72;5074920;28;20032;-52
2022/02/27 01:47:22;;;;;;;10.35;4.13;;;;;;;5.87;47.49;99459.41;5074894;28;20098;-52
2022/02/27 01:49:51;;;;;;;6.75;4.40;;;;;;;5.60;47.69;99465.56;5074844;28;20554;-51
2022/02/27 01:52:17;;;;;;;7.20;4.75;;;;;;;5.34;48.62;99462.88;5074730;28;20031;-52
2022/02/27 01:54:43;;;;;;;9.40;6.35;;;;;;;5.29;48.87;99465.91;5074746;28;20028;-52
2022/02/27 01:57:10;;;;;;;8.55;4.32;;;;;;;5.31;48.82;99460.53;5074612;28;20052;-52
2022/02/27 01:59:40;;;;;;;9.00;4.10;;;;;;;5.33;48.74;99461.22;5056664;28;20036;-52
2022/02/27 02:02:07;;;;;;;10.30;3.67;;;;;;;5.30;49.04;99464.13;5074560;28;20103;-52
2022/02/27 02:04:33;;;;;;;8.35;4.10;;;;;;;5.27;48.74;99460.03;5074496;28;20021;-51
2022/02/27 02:06:59;;;;;;;8.68;4.00;;;;;;;5.24;49.18;99455.13;5074401;28;20453;-51
2022/02/27 02:09:25;;;;;;;9.27;3.38;;;;;;;5.39;49.00;99448.44;5074476;28;20032;-52
2022/02/27 02:11:52;;;;;;;9.63;4.72;;;;;;;5.61;48.60;99446.34;5074406;28;20115;-52
2022/02/27 02:14:17;;;;;;;7.40;3.80;;;;;;;5.66;48.22;99441.53;5074370;28;20074;-52
2022/02/27 02:16:45;;;;;;;9.73;5.07;;;;;;;5.54;48.51;99434.91;5074370;28;20024;-52
2022/02/27 02:19:14;;;;;;;7.45;4.85;;;;;;;5.35;48.87;99435.84;5056193;28;20128;-51
2022/02/27 02:21:44;;;;;;;10.98;5.00;;;;;;;5.19;48.77;99434.75;5056263;28;20060;-51
2022/02/27 02:24:10;;;;;;;7.18;4.05;;;;;;;5.08;49.26;99442.75;5074436;28;20029;-51
2022/02/27 02:26:38;;;;;;;10.02;4.50;;;;;;;5.08;49.51;99431.53;5074121;28;20494;-51
2022/02/27 02:29:09;;;;;;;11.38;5.80;;;;;;;5.08;49.76;99439.34;5073938;28;20020;-52
2022/02/27 02:31:36;;;;;;;11.25;4.28;;;;;;;5.11;49.76;99433.81;5055696;28;20063;-51
2022/02/27 02:34:09;;;;;;;7.82;4.35;;;;;;;5.14;49.65;99430.94;5082101;28;20044;-51
2022/02/27 02:36:35;;;;;;;11.02;4.60;;;;;;;5.03;49.51;99434.59;5075902;28;20459;-52
2022/02/27 02:39:04;;;;;;;8.85;4.43;;;;;;;4.89;49.57;99435.03;5075954;28;20039;-51
2022/02/27 02:41:30;;;;;;;10.48;4.70;;;;;;;4.85;50.16;99434.53;5094090;28;20059;-51
2022/02/27 02:43:56;;;;;;;12.30;4.95;;;;;;;4.94;50.02;99433.66;5094114;28;20024;-51
2022/02/27 02:46:22;;;;;;;10.88;4.60;;;;;;;4.98;50.17;99429.78;5075826;28;20028;-51
2022/02/27 02:48:48;;;;;;;8.30;4.32;;;;;;;5.00;50.07;99432.25;5093906;28;20028;-51
2022/02/27 02:51:13;;;;;;;10.88;4.88;;;;;;;5.04;49.71;99423.19;5075709;28;20020;-51
2022/02/27 02:53:40;;;;;;;16.83;7.60;;;;;;;4.87;50.18;99430.00;5075691;28;20028;-51
2022/02/27 02:56:07;;;;;;;11.65;5.95;;;;;;;4.79;50.26;99419.53;5075608;28;20020;-51
2022/02/27 02:58:41;;;;;;;7.78;4.28;;;;;;;4.71;50.29;99424.59;5093790;28;20512;-51
2022/02/27 03:01:13;;;;;;;8.50;5.18;;;;;;;4.56;50.71;99427.66;5093737;28;20532;-51
2022/02/27 03:03:40;;;;;;;9.00;4.32;;;;;;;4.42;51.08;99432.53;5093750;28;20036;-52
2022/02/27 03:06:08;;;;;;;15.43;5.45;;;;;;;4.54;51.11;99433.97;5093794;28;20039;-51
2022/02/27 03:08:35;;;;;;;13.18;4.30;;;;;;;4.79;50.63;99432.53;5093489;28;20024;-52
2022/02/27 03:11:01;;;;;;;9.50;4.45;;;;;;;4.88;50.11;99434.22;5093509;28;20023;-52
2022/02/27 03:13:26;;;;;;;8.98;3.83;;;;;;;4.85;50.12;99424.13;5075264;28;20024;-51
2022/02/27 03:15:52;;;;;;;8.55;4.55;;;;;;;4.90;50.01;99426.28;5093409;28;20052;-51
2022/02/27 03:18:18;;;;;;;5.88;3.65;;;;;;;5.06;49.86;99425.66;5093659;28;20031;-51
2022/02/27 03:20:44;;;;;;;9.48;4.15;;;;;;;5.27;49.36;99421.00;5093373;28;20024;-52
2022/02/27 03:23:10;;;;;;;7.25;4.75;;;;;;;5.30;48.56;99427.69;5075080;28;20028;-52
2022/02/27 03:25:35;;;;;;;7.22;4.50;;;;;;;5.18;48.74;99422.69;5093232;28;20141;-51
2022/02/27 03:28:01;;;;;;;5.72;3.17;;;;;;;5.05;49.02;99427.44;5075240;28;20397;-52
2022/02/27 03:30:27;;;;;;;9.70;4.20;;;;;;;4.98;49.15;99428.97;5093127;28;20055;-51
2022/02/27 03:32:53;;;;;;;8.98;3.72;;;;;;;5.04;49.09;99428.41;5093103;28;20443;-51
2022/02/27 03:35:20;;;;;;;10.05;4.10;;;;;;;5.32;49.07;99426.56;5059039;28;20128;-51
2022/02/27 03:37:50;;;;;;;10.60;3.70;;;;;;;5.56;48.13;99431.19;5054813;28;20032;-52
2022/02/27 03:40:18;;;;;;;11.50;3.85;;;;;;;5.63;47.45;99428.78;5072682;28;20025;-51
2022/02/27 03:42:44;;;;;;;9.20;5.55;;;;;;;5.56;47.17;99428.56;5072636;28;20016;-52
2022/02/27 03:45:11;;;;;;;8.05;3.55;;;;;;;5.52;47.35;99429.03;5054409;28;20507;-52
2022/02/27 03:47:36;;;;;;;10.85;3.80;;;;;;;5.57;47.83;99429.38;5054601;28;20055;-51
2022/02/27 03:50:04;;;;;;;7.63;3.25;;;;;;;5.57;47.11;99432.00;5072476;28;20425;-52
2022/02/27 03:52:30;;;;;;;8.38;3.67;;;;;;;5.58;47.47;99429.25;5072499;28;20521;-52
2022/02/27 03:54:59;;;;;;;7.63;3.50;;;;;;;5.54;47.26;99432.31;5072496;28;20028;-51
2022/02/27 03:57:25;;;;;;;10.98;4.18;;;;;;;5.62;47.54;99439.38;5072376;28;20033;-52
2022/02/27 03:59:51;;;;;;;9.02;3.70;;;;;;;5.83;47.48;99428.63;5054373;28;20375;-52
2022/02/27 04:02:17;;;;;;;19.95;11.63;;;;;;;6.20;47.15;99429.25;5054329;28;20035;-52
2022/02/27 04:04:42;;;;;;;25.83;5.72;;;;;;;6.52;45.78;99422.59;5072299;28;20052;-52
2022/02/27 04:07:08;;;;;;;12.18;4.47;;;;;;;6.67;45.29;99416.78;5072087;28;20452;-52
2022/02/27 04:09:34;;;;;;;10.43;3.53;;;;;;;6.75;45.44;99425.44;5072186;28;20427;-52
2022/02/27 04:11:59;;;;;;;10.07;3.97;;;;;;;6.85;44.79;99422.72;5072172;28;20019;-52
2022/02/27 04:14:25;;;;;;;4.60;3.10;;;;;;;6.87;44.40;99423.38;5054213;28;20401;-52
2022/02/27 04:16:51;;;;;;;6.28;3.53;;;;;;;6.46;44.21;99417.16;5054175;28;20036;-52
2022/02/27 04:19:17;;;;;;;7.60;3.65;;;;;;;6.22;45.27;99423.03;5072093;28;20062;-52
2022/02/27 04:21:42;;;;;;;7.05;3.65;;;;;;;5.83;45.86;99431.22;5054110;28;20028;-51
2022/02/27 04:24:08;;;;;;;7.10;2.92;;;;;;;5.43;46.64;99435.13;5072087;28;20486;-51
2022/02/27 04:26:34;;;;;;;8.55;3.60;;;;;;;5.23;47.83;99442.25;5054052;28;20481;-52
2022/02/27 04:28:59;;;;;;;12.07;3.55;;;;;;;5.27;47.57;99441.81;5053911;28;20028;-51
2022/02/27 04:31:25;;;;;;;6.97;3.20;;;;;;;5.02;47.99;99445.94;5071963;28;20062;-51
2022/02/27 04:33:51;;;;;;;8.27;3.58;;;;;;;4.87;48.47;99450.81;5075062;28;20104;-52
2022/02/27 04:36:17;;;;;;;7.82;3.72;;;;;;;4.68;48.79;99448.28;5073939;28;20489;-51
2022/02/27 04:38:42;;;;;;;10.60;3.75;;;;;;;4.58;49.49;99454.34;5092084;28;20022;-52
2022/02/27 04:41:08;;;;;;;5.65;3.60;;;;;;;4.65;49.31;99453.75;5091932;28;20027;-51
2022/02/27 04:43:34;;;;;;;8.38;3.17;;;;;;;4.78;49.21;99441.28;5073791;28;20206;-51
2022/02/27 04:46:00;;;;;;;9.25;3.03;;;;;;;5.04;48.91;99448.41;5091929;28;20020;-51
2022/02/27 04:48:25;;;;;;;10.07;3.70;;;;;;;5.26;48.46;99452.38;5091831;28;20020;-51
2022/02/27 04:50:51;;;;;;;13.55;3.67;;;;;;;5.54;47.97;99440.94;5073745;28;20512;-51
2022/02/27 04:53:17;;;;;;;7.20;3.75;;;;;;;5.86;47.42;99444.78;5073671;28;20028;-52
2022/02/27 04:55:43;;;;;;;11.75;3.55;;;;;;;6.07;46.81;99441.84;5076519;28;20435;-52
2022/02/27 04:58:08;;;;;;;6.93;3.13;;;;;;;6.24;46.34;99434.13;5098594;28;20135;-52
2022/02/27 05:00:34;;;;;;;8.50;3.15;;;;;;;6.42;45.77;99432.31;5080393;28;20024;-52
2022/02/27 05:03:00;;;;;;;11.43;3.67;;;;;;;6.60;45.54;99435.66;5097497;28;20038;-51
2022/02/27 05:05:26;;;;;;;10.30;3.33;;;;;;;6.75;45.11;99433.25;5098548;28;20031;-52
2022/02/27 05:07:51;;;;;;;6.65;3.55;;;;;;;6.76;45.22;99436.69;5080166;28;20094;-52
2022/02/27 05:10:17;;;;;;;10.38;3.83;;;;;;;6.82;44.80;99440.47;5098405;28;20481;-52
2022/02/27 05:12:43;;;;;;;13.82;3.17;;;;;;;6.82;44.54;99436.06;5098468;28;20016;-52
2022/02/27 05:15:10;;;;;;;6.90;3.35;;;;;;;6.93;44.75;99437.56;5080133;28;20028;-52
2022/02/27 05:17:36;;;;;;;10.20;3.90;;;;;;;6.96;44.17;99442.47;5080117;28;20516;-52
2022/02/27 05:20:06;;;;;;;7.97;3.55;;;;;;;7.08;43.91;99438.59;5080049;28;20019;-53
2022/02/27 05:22:32;;;;;;;6.60;3.25;;;;;;;6.99;43.42;99445.59;5080154;28;20149;-52
2022/02/27 05:24:58;;;;;;;7.75;3.28;;;;;;;6.85;44.34;99446.19;5098282;28;20623;-52
2022/02/27 05:27:24;;;;;;;9.05;3.28;;;;;;;6.84;44.27;99449.78;5098245;28;20025;-52
2022/02/27 05:29:50;;;;;;;7.00;2.97;;;;;;;6.82;44.28;99454.31;5098323;28;20028;-52
2022/02/27 05:32:16;;;;;;;11.52;3.50;;;;;;;6.71;45.04;99455.41;5079957;28;20024;-52
2022/02/27 05:34:41;;;;;;;17.33;4.70;;;;;;;6.81;44.45;99455.31;5097999;28;20048;-52
2022/02/27 05:37:07;;;;;;;12.73;3.40;;;;;;;6.90;44.46;99458.75;5079953;28;20028;-52
2022/02/27 05:39:33;;;;;;;9.27;3.00;;;;;;;6.74;44.65;99467.31;5098216;28;20069;-51
2022/02/27 05:41:59;;;;;;;10.70;3.40;;;;;;;6.56;44.40;99463.03;5098127;28;20031;-52
2022/02/27 05:44:24;;;;;;;8.18;4.00;;;;;;;6.43;45.46;99464.41;5098177;28;20104;-51
2022/02/27 05:46:51;;;;;;;14.68;6.28;;;;;;;6.54;44.86;99462.34;5098126;28;20034;-52
2022/02/27 05:49:18;;;;;;;13.38;4.80;;;;;;;6.51;44.60;99461.84;5097994;28;20020;-52
2022/02/27 05:51:47;;;;;;;8.48;3.85;;;;;;;6.42;44.89;99462.75;5079899;28;20058;-52
2022/02/27 05:54:13;;;;;;;10.00;3.30;;;;;;;6.36;45.02;99464.22;5079835;28;20020;-52
2022/02/27 05:56:40;;;;;;;6.93;3.28;;;;;;;6.49;45.25;99466.41;5079808;28;20023;-52
2022/02/27 05:59:05;;;;;;;10.30;3.15;;;;;;;6.55;44.88;99466.59;5079783;28;20464;-51
2022/02/27 06:01:31;;;;;;;11.10;3.60;;;;;;;6.61;44.98;99467.75;5079765;28;20119;-52
2022/02/27 06:03:57;;;;;;;10.75;3.75;;;;;;;6.68;44.35;99474.00;5098002;28;20028;-52
2022/02/27 06:06:23;;;;;;;7.57;3.13;;;;;;;6.55;44.40;99474.41;5097436;28;20028;-52
2022/02/27 06:08:48;;;;;;;7.53;3.63;;;;;;;6.47;44.77;99476.16;5076502;28;20028;-52
2022/02/27 06:11:14;;;;;;;8.07;3.47;;;;;;;6.51;45.05;99473.09;5095005;28;20024;-52
2022/02/27 06:13:40;;;;;;;8.55;2.85;;;;;;;6.72;44.25;99466.66;5076488;28;20031;-52
2022/02/27 06:16:05;;;;;;;8.18;3.00;;;;;;;6.66;44.37;99470.72;5076417;28;20378;-52
2022/02/27 06:18:31;;;;;;;6.20;2.38;;;;;;;6.56;44.85;99476.06;5094607;28;20028;-51
2022/02/27 06:20:57;;;;;;;7.53;3.10;;;;;;;6.53;44.62;99471.13;5076336;28;20509;-51
2022/02/27 06:23:22;;;;;;;6.30;2.45;;;;;;;6.54;44.49;99474.56;5094514;28;20028;-52
2022/02/27 06:25:48;;;;;;;608.90;164.15;;;;;;;6.64;45.31;99474.44;5094379;28;20034;-52
2022/02/27 06:28:14;;;;;;;503.77;89.15;;;;;;;6.78;44.38;99479.91;5076109;28;20020;-52
2022/02/27 06:30:40;;;;;;;35.40;6.55;;;;;;;6.98;44.44;99472.66;5076146;28;20074;-52
2022/02/27 06:33:06;;;;;;;26.52;7.53;;;;;;;7.17;44.02;99473.38;5094313;28;20016;-51
2022/02/27 06:35:31;;;;;;;20.05;5.97;;;;;;;7.31;43.88;99479.78;5094123;28;20040;-51
2022/02/27 06:37:57;;;;;;;18.15;4.45;;;;;;;7.54;42.95;99477.38;5094469;28;20028;-52
2022/02/27 06:40:23;;;;;;;7.72;3.95;;;;;;;7.77;42.50;99478.38;5094147;28;20035;-52
2022/02/27 06:42:49;;;;;;;14.88;3.72;;;;;;;7.88;41.84;99474.63;5094137;28;20028;-51
2022/02/27 06:45:16;;;;;;;15.80;4.53;;;;;;;7.98;41.54;99475.25;5094070;28;20016;-52
2022/02/27 06:47:42;;;;;;;6.90;3.72;;;;;;;8.06;41.59;99477.06;5075760;28;20020;-52
2022/02/27 06:50:09;;;;;;;10.75;3.33;;;;;;;8.19;41.81;99472.16;5075790;28;20085;-52
2022/02/27 06:52:35;;;;;;;19.10;3.58;;;;;;;8.26;41.45;99480.16;5093971;28;20163;-51
2022/02/27 06:55:01;;;;;;;6.43;3.13;;;;;;;8.30;40.95;99473.59;5075668;28;20111;-52
2022/02/27 06:57:28;;;;;;;10.43;3.80;;;;;;;8.43;41.55;99477.53;5075594;28;20512;-52
2022/02/27 06:59:54;;;;;;;12.60;3.13;;;;;;;8.72;41.17;99477.78;5093799;28;20027;-52
2022/02/27 07:02:20;;;;;;;15.07;2.90;;;;;;;8.98;40.02;99479.34;5075531;28;20020;-53
2022/02/27 07:04:46;;;;;;;20.42;16.65;;;;;;;9.00;39.88;99475.56;5075464;28;20409;-52
2022/02/27 07:07:12;;;;;;;13.93;8.05;;;;;;;8.96;39.75;99473.47;5093578;28;20031;-53
2022/02/27 07:09:38;;;;;;;9.85;4.40;;;;;;;9.00;40.16;99480.00;5093627;28;20062;-52
2022/02/27 07:12:04;;;;;;;8.32;3.78;;;;;;;9.61;38.94;99474.88;5075276;28;20566;-53
2022/02/27 07:14:29;;;;;;;22.42;3.90;;;;;;;10.48;37.53;99471.88;5093514;28;20389;-52
2022/02/27 07:16:55;;;;;;;5.47;2.55;;;;;;;11.27;36.36;99473.06;5093762;28;20020;-52
2022/02/27 07:19:24;;;;;;;11.38;2.85;;;;;;;11.43;35.33;99467.59;5092880;28;20016;-52
2022/02/27 07:21:50;;;;;;;8.75;2.92;;;;;;;11.49;34.99;99474.75;5093309;28;20401;-52
2022/02/27 07:24:15;;;;;;;7.85;2.95;;;;;;;11.73;34.29;99476.19;5075156;28;20028;-53
2022/02/27 07:26:41;;;;;;;8.52;3.00;;;;;;;11.70;34.71;99471.28;5093254;28;20020;-53
2022/02/27 07:29:08;;;;;;;11.82;3.80;;;;;;;11.74;34.55;99474.38;5074981;28;20115;-54
2022/02/27 07:31:34;;;;;;;11.70;2.90;;;;;;;11.97;33.81;99469.75;5093168;28;20031;-53
2022/02/27 07:34:02;;;;;;;4.85;2.78;;;;;;;12.00;33.76;99476.44;5092888;28;20055;-52
2022/02/27 07:36:28;;;;;;;7.93;3.20;;;;;;;12.15;34.11;99482.44;5093109;28;20025;-52
2022/02/27 07:38:54;;;;;;;9.55;3.08;;;;;;;12.21;33.70;99480.03;5093004;28;20420;-53
2022/02/27 07:41:20;;;;;;;6.40;3.40;;;;;;;12.13;34.13;99478.34;5092987;28;20031;-53
2022/02/27 07:43:46;;;;;;;10.57;3.15;;;;;;;11.33;36.25;99482.84;5093149;28;20070;-53
2022/02/27 07:46:12;;;;;;;16.02;4.00;;;;;;;10.77;37.22;99478.94;5074679;28;20142;-52
2022/02/27 07:48:38;;;;;;;14.50;3.78;;;;;;;10.58;37.83;99484.72;5092799;28;20111;-53
2022/02/27 07:51:03;;;;;;;12.15;3.55;;;;;;;10.51;37.08;99487.25;5074667;28;20028;-52
2022/02/27 07:53:29;;;;;;;5.80;2.78;;;;;;;10.37;36.92;99477.56;5074567;28;20030;-52
2022/02/27 07:55:55;;;;;;;14.05;3.33;;;;;;;10.26;37.23;99485.84;5074500;28;20028;-53
2022/02/27 07:58:21;;;;;;;30.08;16.58;;;;;;;10.56;36.81;99481.47;5092653;28;20028;-52
2022/02/27 08:00:46;;;;;;;13.00;4.68;;;;;;;10.77;36.32;99484.19;5092660;28;20016;-53
2022/02/27 08:03:12;;;;;;;6.70;3.35;;;;;;;11.11;35.76;99488.06;5074406;28;20020;-52
2022/02/27 08:05:40;;;;;;;7.00;3.55;;;;;;;11.38;34.99;99478.66;5074205;28;20024;-52
2022/02/27 08:08:06;;;;;;;12.43;3.42;;;;;;;11.37;34.94;99489.38;5092496;28;20491;-53
2022/02/27 08:10:32;;;;;;;7.32;3.42;;;;;;;11.24;34.96;99482.13;5074261;28;20024;-52
2022/02/27 08:12:57;;;;;;;8.48;2.95;;;;;;;11.24;34.76;99482.13;5092679;28;20107;-52
2022/02/27 08:15:24;;;;;;;8.63;2.70;;;;;;;11.13;35.08;99483.44;5074110;28;20497;-53
2022/02/27 08:17:53;;;;;;;8.38;3.05;;;;;;;11.23;35.12;99482.31;5092371;28;20020;-52
2022/02/27 08:20:19;;;;;;;7.38;2.85;;;;;;;11.43;34.62;99493.06;5074124;28;20050;-52
2022/02/27 08:22:45;;;;;;;9.00;3.05;;;;;;;11.26;36.57;99500.34;5092209;28;20028;-52
2022/02/27 08:25:12;;;;;;;9.02;2.90;;;;;;;10.88;36.47;99497.84;5092213;28;20027;-52
2022/02/27 08:27:38;;;;;;;7.50;3.83;;;;;;;10.52;41.00;99504.66;5092155;28;20016;-52
2022/02/27 08:30:05;;;;;;;8.23;3.15;;;;;;;10.57;38.50;99507.53;5073205;28;20032;-53
2022/02/27 08:32:31;;;;;;;9.23;3.50;;;;;;;10.45;37.56;99500.31;5092130;28;20032;-52
2022/02/27 08:34:59;;;;;;;7.05;2.88;;;;;;;10.74;37.76;99505.53;5091829;28;20131;-52
2022/02/27 08:37:25;;;;;;;8.63;3.30;;;;;;;12.43;35.05;99499.22;5092077;28;20028;-53
2022/02/27 08:39:51;;;;;;;22.95;9.48;;;;;;;13.86;32.88;99492.31;5092031;28;20404;-53
2022/02/27 08:42:16;;;;;;;12.73;5.85;;;;;;;13.96;31.50;99491.91;5073822;28;20024;-53
2022/02/27 08:44:42;;;;;;;9.13;4.57;;;;;;;14.33;31.43;99489.69;5091984;28;20458;-53
2022/02/27 08:47:08;;;;;;;11.65;3.08;;;;;;;14.41;30.52;99493.94;5091897;28;20465;-53
2022/02/27 08:49:34;;;;;;;9.82;3.80;;;;;;;14.19;31.44;99488.88;5091844;28;20024;-53
2022/02/27 08:52:00;;;;;;;7.70;2.65;;;;;;;14.86;30.38;99491.44;5091893;28;20089;-53
2022/02/27 08:54:27;;;;;;;8.25;2.95;;;;;;;15.34;29.40;99497.13;5074004;28;20505;-53
2022/02/27 08:56:52;;;;;;;6.57;2.88;;;;;;;15.10;29.78;99501.31;5091810;28;20016;-53
2022/02/27 08:59:18;;;;;;;8.60;2.97;;;;;;;15.22;30.11;99492.72;5057023;28;20059;-53
2022/02/27 09:01:44;;;;;;;7.93;2.85;;;;;;;16.24;28.02;99492.69;5091793;28;20024;-51
2022/02/27 09:04:10;;;;;;;5.18;2.65;;;;;;;16.65;27.45;99494.75;5091819;28;20039;-51
2022/02/27 09:06:36;;;;;;;12.82;3.13;;;;;;;17.35;26.88;99491.69;5091769;28;20023;-52
2022/02/27 09:09:03;;;;;;;9.43;3.13;;;;;;;17.94;25.68;99485.78;5091659;28;20034;-51
2022/02/27 09:11:28;;;;;;;11.27;3.08;;;;;;;18.19;25.07;99480.28;5091719;28;20028;-51
2022/02/27 09:13:54;;;;;;;8.07;3.08;;;;;;;18.28;24.59;99472.75;5091766;28;20020;-51
2022/02/27 09:16:20;;;;;;;7.68;2.63;;;;;;;18.36;24.63;99467.09;5091762;28;20020;-51
2022/02/27 09:18:46;;;;;;;6.95;2.97;;;;;;;18.71;24.18;99469.72;5091708;28;20042;-51
2022/02/27 09:21:12;;;;;;;8.77;2.60;;;;;;;18.98;23.85;99468.41;5091682;28;20024;-50
2022/02/27 09:23:38;;;;;;;9.13;2.78;;;;;;;19.01;23.81;99479.38;5091664;28;20028;-52
2022/02/27 09:26:04;;;;;;;12.57;3.20;;;;;;;19.32;23.48;99467.47;5091581;28;20026;-52
2022/02/27 09:28:31;;;;;;;7.05;2.90;;;;;;;19.71;22.67;99467.63;5073304;28;20442;-52
2022/02/27 09:30:57;;;;;;;7.38;2.55;;;;;;;20.39;22.54;99467.63;5091588;28;20071;-51
2022/02/27 09:33:23;;;;;;;7.07;2.80;;;;;;;20.08;21.78;99464.50;5091540;28;20524;-50
2022/02/27 09:35:50;;;;;;;9.65;3.10;;;;;;;19.47;23.27;99469.59;5091249;28;20486;-52
2022/02/27 09:38:16;;;;;;;7.15;2.60;;;;;;;19.81;22.51;99463.53;5091502;28;20048;-51
2022/02/27 09:40:42;;;;;;;6.32;2.47;;;;;;;20.21;22.35;99466.03;5091403;28;20020;-51
2022/02/27 09:43:08;;;;;;;8.02;3.50;;;;;;;20.49;21.99;99473.09;5076446;28;20082;-52
2022/02/27 09:45:34;;;;;;;8.13;2.60;;;;;;;20.02;22.21;99459.31;5095209;28;20020;-51
2022/02/27 09:48:00;;;;;;;6.78;2.67;;;;;;;19.50;22.69;99470.97;5095105;28;20043;-51
2022/02/27 09:50:26;;;;;;;6.60;2.38;;;;;;;19.83;22.68;99466.75;5095127;28;20027;-51
2022/02/27 09:52:52;;;;;;;12.38;3.45;;;;;;;20.39;21.78;99470.28;5095129;28;20099;-51
2022/02/27 09:55:18;;;;;;;8.73;2.58;;;;;;;20.18;21.81;99469.16;5095053;28;20116;-51
2022/02/27 09:57:46;;;;;;;6.82;2.47;;;;;;;20.50;21.68;99472.03;5076750;28;20378;-51
2022/02/27 10:00:17;;;;;;;10.00;3.47;;;;;;;20.90;21.08;99459.47;5094976;28;20093;-50
2022/02/27 10:03:01;;;;;;;8.60;2.92;;;;;;;21.11;21.11;99458.66;5076730;28;20078;-51
2022/02/27 10:05:27;;;;;;;6.78;3.03;;;;;;;21.33;20.95;99461.28;5094887;28;20028;-51
2022/02/27 10:07:58;;;;;;;12.45;3.30;;;;;;;21.52;20.57;99455.63;5076541;28;20030;-52
2022/02/27 10:10:23;;;;;;;7.70;4.10;;;;;;;21.41;20.55;99444.03;5094796;28;20128;-50
2022/02/27 10:12:49;;;;;;;10.95;5.40;;;;;;;21.66;20.45;99448.78;5076500;28;20564;-51
2022/02/27 10:15:19;;;;;;;9.63;3.33;;;;;;;21.88;20.36;99438.00;5076525;28;20058;-51
2022/02/27 10:17:45;;;;;;;8.23;3.17;;;;;;;21.59;19.78;99456.22;5094624;28;20031;-52
2022/02/27 10:20:16;;;;;;;10.90;2.92;;;;;;;21.09;20.82;99446.63;5076385;28;20501;-52
2022/02/27 10:22:51;;;;;;;5.35;2.67;;;;;;;20.64;20.74;99440.50;5094601;28;20012;-51
2022/02/27 10:25:28;;;;;;;7.10;2.75;;;;;;;20.52;21.46;99437.09;5094535;28;20082;-50
2022/02/27 10:27:56;;;;;;;8.32;2.70;;;;;;;21.00;20.85;99437.44;5076248;28;20442;-51
2022/02/27 10:30:27;;;;;;;9.15;3.20;;;;;;;20.74;20.64;99445.16;5094371;28;20071;-51
2022/02/27 10:32:58;;;;;;;15.07;3.63;;;;;;;19.97;21.33;99445.94;5094408;28;20030;-51
2022/02/27 10:35:47;;;;;;;15.60;4.00;;;;;;;19.51;22.04;99438.78;5094084;28;20566;-51
2022/02/27 10:38:45;;;;;;;9.50;3.58;;;;;;;19.82;21.83;99449.16;5076078;28;20077;-50
2022/02/27 10:41:16;;;;;;;6.38;3.30;;;;;;;20.25;21.45;99450.34;5094228;28;20034;-50
2022/02/27 10:43:44;;;;;;;5.78;2.90;;;;;;;20.48;21.13;99444.00;5094182;28;20023;-51
2022/02/27 10:46:12;;;;;;;6.68;2.50;;;;;;;20.81;20.40;99445.78;5094110;28;20021;-51
2022/02/27 10:48:39;;;;;;;6.25;3.75;;;;;;;20.69;20.85;99445.09;5094227;28;20039;-51
2022/02/27 10:51:23;;;;;;;11.27;3.83;;;;;;;20.87;20.76;99439.44;5093988;28;20024;-51
2022/02/27 10:53:49;;;;;;;8.85;3.38;;;;;;;21.29;20.36;99446.03;5093107;28;20039;-51
2022/02/27 10:56:16;;;;;;;6.65;2.95;;;;;;;21.58;19.79;99422.56;5093867;28;20074;-51
2022/02/27 10:58:44;;;;;;;7.97;3.22;;;;;;;22.01;19.65;99422.59;5075692;28;20081;-50
2022/02/27 11:01:19;;;;;;;9.10;3.20;;;;;;;21.99;19.53;99428.19;5093817;28;20074;-52
2022/02/27 11:03:47;;;;;;;5.18;2.75;;;;;;;21.90;19.50;99422.53;5093787;28;20016;-51
2022/02/27 11:06:14;;;;;;;6.35;2.95;;;;;;;22.04;19.43;99422.09;5075509;28;20520;-51
2022/02/27 11:08:41;;;;;;;9.77;2.70;;;;;;;22.17;19.02;99415.47;5075364;28;20028;-51
2022/02/27 11:11:08;;;;;;;5.10;2.35;;;;;;;22.38;18.80;99424.47;5093623;28;20020;-51
2022/02/27 11:13:34;;;;;;;10.48;3.70;;;;;;;22.04;19.61;99427.44;5093537;28;20040;-50
2022/02/27 11:16:02;;;;;;;6.28;3.10;;;;;;;21.89;19.48;99417.44;5093489;28;20081;-51
2022/02/27 11:18:28;;;;;;;12.35;4.20;;;;;;;22.09;19.44;99424.78;5093460;28;20028;-52
2022/02/27 11:20:55;;;;;;;10.48;4.32;;;;;;;22.18;19.36;99433.16;5093418;28;20099;-51
2022/02/27 11:23:21;;;;;;;8.93;4.32;;;;;;;22.30;19.39;99423.88;5093331;28;20056;-51
2022/02/27 11:25:48;;;;;;;10.35;3.13;;;;;;;22.14;19.63;99427.50;5093305;28;20139;-52
2022/02/27 11:28:16;;;;;;;7.10;3.00;;;;;;;22.22;19.10;99429.69;5093185;28;20028;-52
2022/02/27 11:30:46;;;;;;;6.00;2.75;;;;;;;22.06;19.39;99423.44;5093254;28;20020;-51
2022/02/27 11:33:17;;;;;;;6.25;3.33;;;;;;;21.87;19.22;99417.72;5074990;28;20028;-51